createdAt,value
2019-03-21T00:02:12.226Z,6.75
2019-03-21T00:04:42.228Z,6.81
2019-03-21T00:07:10.726Z,6.73
2019-03-21T00:09:39.199Z,6.73
2019-03-21T00:12:10.408Z,6.82
2019-03-21T00:14:57.109Z,6.66
2019-03-21T00:17:31.313Z,6.83
2019-03-21T00:19:59.785Z,6.58
2019-03-21T00:22:28.284Z,6.67
2019-03-21T00:24:56.760Z,6.47
2019-03-21T00:27:25.245Z,6.48
2019-03-21T00:29:53.720Z,6.48
2019-03-21T00:32:22.291Z,6.37
2019-03-21T00:34:50.753Z,6.58
2019-03-21T00:37:19.244Z,6.45
2019-03-21T00:39:47.716Z,6.56
2019-03-21T00:42:16.213Z,6.72
2019-03-21T00:44:44.683Z,6.57
2019-03-21T00:47:13.187Z,6.73
2019-03-21T00:49:41.662Z,6.58
2019-03-21T00:52:10.155Z,6.63
2019-03-21T00:54:38.635Z,6.77
2019-03-21T00:57:07.133Z,6.85
2019-03-21T00:59:35.601Z,6.97
2019-03-21T01:02:04.096Z,6.72
2019-03-21T01:04:32.633Z,6.70
2019-03-21T01:07:01.159Z,6.74
2019-03-21T01:09:29.625Z,6.94
2019-03-21T01:11:58.120Z,6.88
2019-03-21T01:14:29.948Z,6.92
2019-03-21T01:16:56.803Z,6.87
2019-03-21T01:19:25.282Z,6.85
2019-03-21T01:21:53.773Z,6.96
2019-03-21T01:24:22.240Z,6.87
2019-03-21T01:26:50.744Z,6.96
2019-03-21T01:29:19.277Z,7.06
2019-03-21T01:31:47.792Z,7.06
2019-03-21T01:34:16.266Z,7.10
2019-03-21T01:36:44.757Z,7.01
2019-03-21T01:39:13.233Z,7.14
2019-03-21T01:41:41.696Z,7.10
2019-03-21T01:44:10.190Z,7.11
2019-03-21T01:46:38.661Z,7.15
2019-03-21T01:49:07.148Z,7.03
2019-03-21T01:51:35.619Z,7.05
2019-03-21T01:54:04.179Z,7.08
2019-03-21T01:56:32.640Z,7.03
2019-03-21T01:59:01.149Z,7.04
2019-03-21T02:01:29.622Z,7.07
2019-03-21T02:03:58.122Z,7.16
2019-03-21T02:06:26.596Z,7.18
2019-03-21T02:08:55.352Z,7.17
2019-03-21T02:11:23.815Z,7.15
2019-03-21T02:13:52.316Z,7.20
2019-03-21T02:16:20.787Z,7.19
2019-03-21T02:18:49.289Z,7.17
2019-03-21T02:21:17.754Z,7.39
2019-03-21T02:23:46.252Z,7.37
2019-03-21T02:26:14.718Z,7.37
2019-03-21T02:28:43.221Z,7.33
2019-03-21T02:31:11.737Z,7.31
2019-03-21T02:33:45.049Z,7.12
2019-03-21T02:36:14.315Z,7.22
2019-03-21T02:38:42.878Z,7.42
2019-03-21T02:41:16.585Z,7.35
2019-03-21T02:43:45.080Z,7.32
2019-03-21T02:46:13.567Z,7.34
2019-03-21T02:48:42.128Z,7.13
2019-03-21T02:51:10.605Z,7.17
2019-03-21T02:53:39.115Z,7.25
2019-03-21T02:56:13.524Z,7.18
2019-03-21T02:58:42.024Z,7.21
2019-03-21T03:01:10.497Z,7.10
2019-03-21T03:03:38.993Z,7.11
2019-03-21T03:06:07.533Z,7.15
2019-03-21T03:08:36.017Z,7.03
2019-03-21T03:11:11.077Z,7.04
2019-03-21T03:13:40.849Z,6.97
2019-03-21T03:16:09.318Z,7.21
2019-03-21T03:18:37.815Z,7.01
2019-03-21T03:21:06.356Z,7.09
2019-03-21T03:23:34.846Z,7.06
2019-03-21T03:26:03.318Z,7.22
2019-03-21T03:28:37.640Z,7.01
2019-03-21T03:31:06.109Z,7.01
2019-03-21T03:33:34.640Z,6.93
2019-03-21T03:36:03.089Z,7.07
2019-03-21T03:38:31.586Z,7.08
2019-03-21T03:41:02.587Z,7.13
2019-03-21T03:43:31.138Z,7.04
2019-03-21T03:45:59.617Z,7.33
2019-03-21T03:48:28.755Z,7.29
2019-03-21T03:50:57.233Z,7.15
2019-03-21T03:53:25.745Z,7.19
2019-03-21T03:55:54.234Z,7.33
2019-03-21T03:58:27.327Z,7.25
2019-03-21T04:00:55.791Z,7.22
2019-03-21T04:03:25.738Z,7.19
2019-03-21T04:05:54.218Z,7.42
2019-03-21T04:08:22.706Z,7.33
2019-03-21T04:10:53.221Z,7.25
2019-03-21T04:13:21.717Z,7.27
2019-03-21T04:15:53.075Z,7.20
2019-03-21T04:18:22.862Z,7.15
2019-03-21T04:20:54.502Z,7.36
2019-03-21T04:23:23.911Z,7.31
2019-03-21T04:25:55.369Z,7.29
2019-03-21T04:28:23.873Z,7.37
2019-03-21T04:30:52.358Z,7.20
2019-03-21T04:33:22.701Z,7.35
2019-03-21T04:35:51.053Z,7.34
2019-03-21T04:38:19.559Z,7.21
2019-03-21T04:40:48.048Z,7.24
2019-03-21T04:43:16.534Z,7.29
2019-03-21T04:45:45.003Z,7.25
2019-03-21T04:48:13.498Z,7.48
2019-03-21T04:50:42.643Z,7.49
2019-03-21T04:53:11.123Z,7.37
2019-03-21T04:55:39.791Z,7.37
2019-03-21T04:58:08.260Z,7.34
2019-03-21T05:00:45.034Z,7.31
2019-03-21T05:03:15.837Z,7.35
2019-03-21T05:05:44.313Z,7.24
2019-03-21T05:08:12.789Z,7.10
2019-03-21T05:10:41.286Z,7.25
2019-03-21T05:13:09.759Z,7.09
2019-03-21T05:15:43.743Z,7.14
2019-03-21T05:18:24.107Z,7.24
2019-03-21T05:20:52.573Z,7.20
2019-03-21T05:23:21.041Z,7.12
2019-03-21T05:25:49.539Z,7.18
2019-03-21T05:28:18.015Z,7.18
2019-03-21T05:30:49.892Z,7.19
2019-03-21T05:33:18.384Z,7.25
2019-03-21T05:35:46.858Z,7.23
2019-03-21T05:38:15.530Z,7.40
2019-03-21T05:40:44.009Z,7.43
2019-03-21T05:43:24.659Z,7.37
2019-03-21T05:45:53.156Z,7.44
2019-03-21T05:48:21.713Z,7.61
2019-03-21T05:50:50.210Z,7.67
2019-03-21T05:53:18.691Z,7.67
2019-03-21T05:55:47.266Z,7.56
2019-03-21T05:58:15.743Z,7.77
2019-03-21T06:00:47.297Z,7.62
2019-03-21T06:03:21.584Z,7.79
2019-03-21T06:05:55.973Z,7.75
2019-03-21T06:08:28.096Z,7.68
2019-03-21T06:10:56.603Z,7.86
2019-03-21T06:13:25.072Z,7.95
2019-03-21T06:15:53.594Z,7.92
2019-03-21T06:18:39.716Z,8.04
2019-03-21T06:21:20.162Z,7.93
2019-03-21T06:23:51.688Z,8.00
2019-03-21T06:26:25.810Z,7.88
2019-03-21T06:28:54.284Z,8.16
2019-03-21T06:31:22.784Z,8.40
2019-03-21T06:33:51.253Z,8.30
2019-03-21T06:36:19.746Z,8.22
2019-03-21T06:38:48.217Z,8.32
2019-03-21T06:41:16.723Z,8.33
2019-03-21T06:43:45.196Z,8.36
2019-03-21T06:46:13.704Z,8.38
2019-03-21T06:48:42.179Z,8.43
2019-03-21T06:51:10.677Z,8.49
2019-03-21T06:53:39.147Z,8.70
2019-03-21T06:56:07.644Z,8.67
2019-03-21T06:58:36.122Z,8.50
2019-03-21T07:01:04.689Z,8.66
2019-03-21T07:03:33.175Z,8.85
2019-03-21T07:06:01.671Z,8.92
2019-03-21T07:08:30.145Z,8.94
2019-03-21T07:10:58.648Z,9.05
2019-03-21T07:13:27.116Z,9.00
2019-03-21T07:15:55.621Z,8.91
2019-03-21T07:18:24.100Z,8.92
2019-03-21T07:20:52.592Z,8.97
2019-03-21T07:23:21.080Z,9.26
2019-03-21T07:25:49.740Z,9.40
2019-03-21T07:28:18.215Z,9.54
2019-03-21T07:30:46.710Z,9.57
2019-03-21T07:33:15.181Z,9.63
2019-03-21T07:35:43.682Z,9.68
2019-03-21T07:38:12.163Z,9.61
2019-03-21T07:40:40.663Z,9.73
2019-03-21T07:43:09.142Z,9.70
2019-03-21T07:45:37.639Z,9.74
2019-03-21T07:48:06.193Z,9.65
2019-03-21T07:50:34.689Z,9.78
2019-03-21T07:53:03.160Z,9.62
2019-03-21T07:55:31.662Z,9.74
2019-03-21T07:58:00.130Z,9.60
2019-03-21T08:00:28.623Z,9.59
2019-03-21T08:02:57.097Z,9.83
2019-03-21T08:05:25.597Z,9.84
2019-03-21T08:07:54.078Z,10.04
2019-03-21T08:10:22.568Z,10.06
2019-03-21T08:12:51.049Z,10.38
2019-03-21T08:15:19.608Z,10.79
2019-03-21T08:17:48.090Z,10.44
2019-03-21T08:20:17.537Z,10.59
2019-03-21T08:22:46.085Z,10.64
2019-03-21T08:25:14.581Z,10.86
2019-03-21T08:27:43.063Z,10.91
2019-03-21T08:30:26.851Z,10.71
2019-03-21T08:32:55.324Z,10.70
2019-03-21T08:35:23.832Z,11.08
2019-03-21T08:37:52.312Z,11.29
2019-03-21T08:40:20.822Z,11.00
2019-03-21T08:42:49.359Z,10.91
2019-03-21T08:45:17.880Z,11.02
2019-03-21T08:47:46.365Z,11.10
2019-03-21T08:50:14.870Z,11.38
2019-03-21T08:52:43.362Z,11.61
2019-03-21T08:55:11.917Z,11.82
2019-03-21T08:57:40.397Z,11.87
2019-03-21T09:00:12.071Z,12.01
2019-03-21T09:02:40.544Z,12.05
2019-03-21T09:05:09.165Z,12.04
2019-03-21T09:07:37.680Z,12.00
2019-03-21T09:10:08.761Z,12.29
2019-03-21T09:12:37.260Z,12.51
2019-03-21T09:15:08.517Z,12.38
2019-03-21T09:17:37.056Z,12.27
2019-03-21T09:20:07.774Z,12.34
2019-03-21T09:22:36.277Z,12.27
2019-03-21T09:25:06.892Z,11.93
2019-03-21T09:27:35.560Z,11.73
2019-03-21T09:30:06.715Z,12.21
2019-03-21T09:32:35.230Z,12.26
2019-03-21T09:35:04.742Z,12.53
2019-03-21T09:37:33.257Z,12.23
2019-03-21T09:40:01.724Z,12.12
2019-03-21T09:42:30.213Z,11.84
2019-03-21T09:44:58.695Z,11.67
2019-03-21T09:47:27.195Z,11.77
2019-03-21T09:49:55.677Z,12.26
2019-03-21T09:52:24.190Z,12.64
2019-03-21T09:54:52.667Z,12.78
2019-03-21T09:57:21.187Z,12.92
2019-03-21T09:59:49.655Z,13.15
2019-03-21T10:02:18.232Z,13.34
2019-03-21T10:04:46.718Z,13.18
2019-03-21T10:07:15.225Z,13.05
2019-03-21T10:09:43.720Z,13.26
2019-03-21T10:12:12.208Z,13.43
2019-03-21T10:14:40.690Z,13.68
2019-03-21T10:17:09.203Z,13.75
2019-03-21T10:19:37.684Z,13.84
2019-03-21T10:22:06.184Z,14.24
2019-03-21T10:24:34.658Z,13.99
2019-03-21T10:27:03.169Z,13.61
2019-03-21T10:29:31.641Z,13.46
2019-03-21T10:32:00.157Z,13.08
2019-03-21T10:34:28.636Z,13.09
2019-03-21T10:36:57.123Z,12.93
2019-03-21T10:39:25.632Z,13.13
2019-03-21T10:41:54.114Z,13.10
2019-03-21T10:44:22.614Z,13.08
2019-03-21T10:46:51.088Z,13.16
2019-03-21T10:49:19.602Z,12.90
2019-03-21T10:51:55.039Z,13.25
2019-03-21T10:54:18.303Z,13.54
2019-03-21T10:56:46.785Z,13.61
2019-03-21T10:59:15.290Z,13.63
2019-03-21T11:01:43.771Z,13.94
2019-03-21T11:04:12.266Z,14.01
2019-03-21T11:06:40.738Z,14.16
2019-03-21T11:09:09.584Z,14.25
2019-03-21T11:11:38.065Z,13.98
2019-03-21T11:14:06.563Z,13.73
2019-03-21T11:16:35.036Z,13.97
2019-03-21T11:19:03.543Z,14.22
2019-03-21T11:21:32.018Z,14.51
2019-03-21T11:24:00.521Z,15.01
2019-03-21T11:26:28.986Z,15.19
2019-03-21T11:28:57.493Z,15.47
2019-03-21T11:31:25.971Z,15.86
2019-03-21T11:33:54.467Z,15.97
2019-03-21T11:36:22.940Z,16.24
2019-03-21T11:38:51.434Z,16.09
2019-03-21T11:41:19.933Z,16.64
2019-03-21T11:43:48.419Z,16.47
2019-03-21T11:46:16.898Z,16.59
2019-03-21T11:48:45.380Z,16.78
2019-03-21T11:51:13.869Z,17.35
2019-03-21T11:53:42.334Z,16.84
2019-03-21T11:56:12.951Z,16.41
2019-03-21T11:58:41.037Z,16.09
2019-03-21T12:01:09.544Z,16.22
2019-03-21T12:03:38.029Z,16.75
2019-03-21T12:06:06.551Z,16.26
2019-03-21T12:08:35.026Z,16.05
2019-03-21T12:11:03.535Z,15.90
2019-03-21T12:13:32.002Z,16.17
2019-03-21T12:16:00.502Z,17.05
2019-03-21T12:18:28.984Z,17.84
2019-03-21T12:20:57.563Z,18.17
2019-03-21T12:23:26.035Z,17.82
2019-03-21T12:25:54.535Z,18.77
2019-03-21T12:28:23.017Z,19.48
2019-03-21T12:30:51.522Z,19.42
2019-03-21T12:33:20.006Z,19.71
2019-03-21T12:35:48.510Z,20.23
2019-03-21T12:38:16.994Z,19.82
2019-03-21T12:40:45.495Z,19.51
2019-03-21T12:43:13.970Z,19.32
2019-03-21T12:45:42.474Z,20.03
2019-03-21T12:48:10.959Z,20.89
2019-03-21T12:50:39.533Z,20.90
2019-03-21T12:53:08.121Z,20.11
2019-03-21T12:55:36.632Z,20.30
2019-03-21T12:58:05.482Z,21.22
2019-03-21T13:00:36.324Z,22.34
2019-03-21T13:03:04.974Z,22.32
2019-03-21T13:05:33.525Z,21.48
2019-03-21T13:08:02.029Z,20.33
2019-03-21T13:10:31.484Z,21.13
2019-03-21T13:12:59.991Z,22.81
2019-03-21T13:15:30.181Z,24.53
2019-03-21T13:18:00.399Z,25.10
2019-03-21T13:20:28.899Z,24.85
2019-03-21T13:22:57.407Z,25.41
2019-03-21T13:25:25.879Z,24.84
2019-03-21T13:27:54.451Z,23.54
2019-03-21T13:30:23.007Z,24.57
2019-03-21T13:32:51.504Z,25.34
2019-03-21T13:35:31.600Z,24.62
2019-03-21T13:37:50.222Z,24.09
2019-03-21T13:40:18.699Z,23.50
2019-03-21T13:42:47.215Z,24.24
2019-03-21T13:45:15.700Z,24.72
2019-03-21T13:47:44.211Z,25.08
2019-03-21T13:50:12.838Z,24.84
2019-03-21T13:52:41.340Z,24.88
2019-03-21T13:55:11.461Z,24.56
2019-03-21T13:57:40.013Z,23.53
2019-03-21T14:00:17.502Z,24.42
2019-03-21T14:02:46.003Z,25.02
2019-03-21T14:05:14.725Z,25.86
2019-03-21T14:07:43.399Z,25.85
2019-03-21T14:10:12.729Z,25.89
2019-03-21T14:12:41.227Z,24.45
2019-03-21T14:15:12.686Z,24.08
2019-03-21T14:17:41.197Z,25.46
2019-03-21T14:20:11.410Z,26.15
2019-03-21T14:22:39.999Z,25.83
2019-03-21T14:25:08.612Z,25.27
2019-03-21T14:27:37.188Z,25.82
2019-03-21T14:30:08.303Z,25.47
2019-03-21T14:32:36.813Z,24.81
2019-03-21T14:35:07.140Z,24.98
2019-03-21T14:37:35.640Z,25.32
2019-03-21T14:40:06.231Z,25.76
2019-03-21T14:42:35.000Z,25.07
2019-03-21T14:45:04.746Z,25.10
2019-03-21T14:47:36.402Z,24.54
2019-03-21T14:50:05.657Z,26.15
2019-03-21T14:52:34.334Z,25.19
2019-03-21T14:55:02.888Z,24.54
2019-03-21T14:57:31.404Z,25.02
2019-03-21T14:59:59.878Z,24.67
2019-03-21T15:02:28.375Z,24.61
2019-03-21T15:04:56.860Z,22.93
2019-03-21T15:07:25.371Z,21.06
2019-03-21T15:09:53.855Z,19.26
2019-03-21T15:12:22.321Z,17.73
2019-03-21T15:14:50.828Z,17.36
2019-03-21T15:17:19.310Z,17.23
2019-03-21T15:19:47.814Z,16.59
2019-03-21T15:22:16.291Z,16.55
2019-03-21T15:24:44.865Z,16.47
2019-03-21T15:27:13.346Z,15.99
2019-03-21T15:29:41.849Z,15.88
2019-03-21T15:32:10.329Z,16.87
2019-03-21T15:34:38.848Z,17.64
2019-03-21T15:37:07.321Z,18.47
2019-03-21T15:39:35.835Z,19.41
2019-03-21T15:42:05.449Z,20.84
2019-03-21T15:44:33.958Z,21.38
2019-03-21T15:47:02.449Z,20.40
2019-03-21T15:49:30.950Z,19.58
2019-03-21T15:51:59.436Z,20.01
2019-03-21T15:54:27.937Z,20.86
2019-03-21T15:56:56.422Z,20.24
2019-03-21T15:59:25.330Z,20.49
2019-03-21T16:01:53.804Z,20.82
2019-03-21T16:04:22.317Z,20.94
2019-03-21T16:06:50.795Z,21.07
2019-03-21T16:09:19.297Z,20.35
2019-03-21T16:11:47.773Z,20.96
2019-03-21T16:14:16.298Z,20.09
2019-03-21T16:16:44.770Z,20.27
2019-03-21T16:19:13.271Z,20.90
2019-03-21T16:21:41.746Z,20.73
2019-03-21T16:24:10.252Z,19.63
2019-03-21T16:26:38.731Z,19.51
2019-03-21T16:29:09.947Z,18.54
2019-03-21T16:31:37.435Z,17.98
2019-03-21T16:34:05.934Z,17.56
2019-03-21T16:36:34.416Z,17.20
2019-03-21T16:39:02.919Z,16.89
2019-03-21T16:41:31.394Z,16.35
2019-03-21T16:43:59.897Z,16.03
2019-03-21T16:46:28.373Z,15.70
2019-03-21T16:48:57.448Z,15.21
2019-03-21T16:51:25.925Z,14.77
2019-03-21T16:53:54.402Z,14.44
2019-03-21T16:56:22.909Z,14.16
2019-03-21T16:58:51.392Z,13.79
2019-03-21T17:01:19.900Z,13.59
2019-03-21T17:03:48.381Z,13.33
2019-03-21T17:06:16.909Z,13.13
2019-03-21T17:08:45.357Z,12.67
2019-03-21T17:11:13.891Z,12.42
2019-03-21T17:13:42.454Z,12.13
2019-03-21T17:16:11.448Z,11.83
2019-03-21T17:18:39.931Z,11.54
2019-03-21T17:21:09.733Z,11.13
2019-03-21T17:23:38.395Z,10.96
2019-03-21T17:26:06.877Z,10.74
2019-03-21T17:28:35.381Z,10.64
2019-03-21T17:31:04.062Z,10.46
2019-03-21T17:33:32.578Z,10.30
2019-03-21T17:36:01.078Z,10.06
2019-03-21T17:38:29.560Z,9.84
2019-03-21T17:40:58.059Z,9.70
2019-03-21T17:43:26.544Z,9.63
2019-03-21T17:45:55.044Z,9.51
2019-03-21T17:48:23.509Z,9.45
2019-03-21T17:50:52.000Z,9.39
2019-03-21T17:53:20.476Z,9.16
2019-03-21T17:55:48.982Z,9.07
2019-03-21T17:58:17.458Z,8.91
2019-03-21T18:00:45.947Z,8.81
2019-03-21T18:03:14.421Z,8.62
2019-03-21T18:05:42.912Z,8.64
2019-03-21T18:08:11.392Z,8.57
2019-03-21T18:10:39.885Z,8.62
2019-03-21T18:13:08.359Z,8.65
2019-03-21T18:15:36.859Z,8.54
2019-03-21T18:18:05.576Z,8.40
2019-03-21T18:20:34.073Z,8.35
2019-03-21T18:23:02.543Z,8.41
2019-03-21T18:25:31.033Z,8.30
2019-03-21T18:27:59.518Z,8.26
2019-03-21T18:30:27.988Z,8.25
2019-03-21T18:32:56.767Z,8.27
2019-03-21T18:35:25.348Z,8.21
2019-03-21T18:37:53.847Z,8.22
2019-03-21T18:40:22.327Z,8.43
2019-03-21T18:42:50.823Z,8.37
2019-03-21T18:45:21.112Z,8.18
2019-03-21T18:47:49.571Z,8.18
2019-03-21T18:50:19.182Z,8.05
2019-03-21T18:52:47.685Z,7.82
2019-03-21T18:55:16.397Z,7.62
2019-03-21T18:57:44.898Z,7.73
2019-03-21T19:00:16.059Z,7.64
2019-03-21T19:02:44.556Z,7.63
2019-03-21T19:05:13.465Z,7.67
2019-03-21T19:07:41.978Z,7.75
2019-03-21T19:10:12.999Z,7.80
2019-03-21T19:12:41.503Z,7.72
2019-03-21T19:15:12.023Z,7.71
2019-03-21T19:17:40.521Z,7.65
2019-03-21T19:20:12.003Z,7.38
2019-03-21T19:22:40.507Z,7.29
2019-03-21T19:25:18.474Z,7.18
2019-03-21T19:27:40.113Z,7.08
2019-03-21T19:30:14.375Z,7.07
2019-03-21T19:32:42.887Z,6.97
2019-03-21T19:35:11.797Z,6.88
2019-03-21T19:37:40.303Z,6.83
2019-03-21T19:40:11.752Z,6.79
2019-03-21T19:42:40.248Z,6.82
2019-03-21T19:45:11.257Z,6.79
2019-03-21T19:47:39.956Z,6.89
2019-03-21T19:50:22.084Z,6.91
2019-03-21T19:52:50.657Z,6.79
2019-03-21T19:55:30.292Z,6.66
2019-03-21T19:57:49.361Z,6.71
2019-03-21T20:00:22.108Z,6.84
2019-03-21T20:02:51.154Z,6.66
2019-03-21T20:05:19.662Z,6.60
2019-03-21T20:07:48.231Z,6.55
2019-03-21T20:10:19.219Z,6.63
2019-03-21T20:12:47.712Z,6.70
2019-03-21T20:15:20.819Z,6.80
2019-03-21T20:17:49.328Z,6.66
2019-03-21T20:20:18.638Z,6.56
2019-03-21T20:22:47.371Z,6.49
2019-03-21T20:25:16.394Z,6.45
2019-03-21T20:27:45.003Z,6.39
2019-03-21T20:30:16.671Z,6.36
2019-03-21T20:32:45.807Z,6.31
2019-03-21T20:35:14.323Z,6.29
2019-03-21T20:37:42.982Z,6.30
2019-03-21T20:40:14.171Z,6.44
2019-03-21T20:42:42.654Z,6.30
2019-03-21T20:45:14.065Z,6.13
2019-03-21T20:47:42.537Z,5.92
2019-03-21T20:50:11.478Z,5.92
2019-03-21T20:52:40.019Z,5.94
2019-03-21T20:55:09.355Z,6.02
2019-03-21T20:57:37.981Z,6.08
2019-03-21T21:00:09.468Z,6.03
2019-03-21T21:02:37.958Z,5.95
2019-03-21T21:05:07.118Z,5.76
2019-03-21T21:07:35.591Z,5.95
2019-03-21T21:10:05.972Z,5.89
2019-03-21T21:12:34.455Z,5.82
2019-03-21T21:15:03.426Z,5.84
2019-03-21T21:17:31.898Z,5.72
2019-03-21T21:20:00.440Z,5.73
2019-03-21T21:22:28.888Z,5.76
2019-03-21T21:24:57.396Z,5.71
2019-03-21T21:27:25.875Z,5.82
2019-03-21T21:29:54.379Z,5.89
2019-03-21T21:32:22.850Z,5.86
2019-03-21T21:34:51.366Z,5.75
2019-03-21T21:37:19.837Z,5.62
2019-03-21T21:39:48.328Z,5.68
2019-03-21T21:42:16.801Z,5.55
2019-03-21T21:44:45.375Z,5.47
2019-03-21T21:47:13.859Z,5.34
2019-03-21T21:49:42.364Z,5.20
2019-03-21T21:52:10.844Z,5.33
2019-03-21T21:54:39.361Z,5.36
2019-03-21T21:57:07.838Z,5.44
2019-03-21T21:59:36.349Z,5.35
2019-03-21T22:02:05.070Z,5.33
2019-03-21T22:04:33.552Z,5.27
2019-03-21T22:07:02.052Z,5.25
2019-03-21T22:09:30.527Z,5.21
2019-03-21T22:11:59.032Z,5.12
2019-03-21T22:14:28.002Z,5.32
2019-03-21T22:16:56.493Z,5.31
2019-03-21T22:19:24.966Z,5.31
2019-03-21T22:21:53.469Z,5.20
2019-03-21T22:24:21.938Z,5.04
2019-03-21T22:26:50.573Z,4.90
2019-03-21T22:29:19.049Z,5.14
2019-03-21T22:31:47.548Z,5.10
2019-03-21T22:34:16.022Z,4.91
2019-03-21T22:36:49.227Z,4.93
2019-03-21T22:39:14.722Z,4.91
2019-03-21T22:41:43.230Z,4.88
2019-03-21T22:44:11.721Z,4.82
2019-03-21T22:46:40.197Z,4.84
2019-03-21T22:49:08.673Z,4.79
2019-03-21T22:51:37.160Z,4.83
2019-03-21T22:54:05.701Z,4.86
2019-03-21T22:56:41.183Z,4.75
2019-03-21T22:59:04.392Z,4.68
2019-03-21T23:01:32.884Z,4.71
2019-03-21T23:04:02.914Z,4.67
2019-03-21T23:06:31.542Z,4.58
2019-03-21T23:09:00.009Z,4.73
2019-03-21T23:11:28.515Z,4.79
2019-03-21T23:13:56.994Z,4.77
2019-03-21T23:16:25.535Z,4.77
2019-03-21T23:18:54.039Z,4.66
2019-03-21T23:21:22.506Z,4.72
2019-03-21T23:23:51.010Z,4.80
2019-03-21T23:26:19.490Z,4.79
2019-03-21T23:28:47.985Z,4.68
2019-03-21T23:31:16.463Z,4.70
2019-03-21T23:33:44.965Z,4.70
2019-03-21T23:36:13.441Z,4.49
2019-03-21T23:38:41.943Z,4.39
2019-03-21T23:41:10.418Z,4.30
2019-03-21T23:43:38.918Z,4.27
2019-03-21T23:46:07.403Z,4.50
2019-03-21T23:48:35.902Z,4.58
2019-03-21T23:51:04.445Z,4.48
2019-03-21T23:53:32.934Z,4.41
2019-03-21T23:56:01.409Z,4.24
2019-03-21T23:58:29.915Z,4.34
